FRSO2: Muddy Boggy Cr, Farris, OK

Data processed at Thu May 23 2019 23:50


All information presented herein is the property of the government of the United States of America and may be revised or deleted at any time without prior notice.
Dissemination of this information without the expressed written consent of the Public Affairs Office, Tulsa District U.S. Army Corps of Engineers is strictly prohibited.
These data are gathered electronically and, as presented, have not undergone any form of quality control. These data are not guaranteed to be valid or correct.
Go to home page.
Go to station list.
Go to home page.

Upstream stations:

Downstream station:
Previous Day
Next Day
Current Day
    
SHEF ID:       FRSO2     Muddy Boggy Creek near Farris, O
STATION TYPE:  
Regulating: Stage =    43.00, Flow =    20800

               PRECIP PRECIP(A)     STAGE  RIV-FLOW  BAT-LOAD
                   in        in        ft       cfs      volt
              Ccp-Rev   Ccp-Rev   Ccp-Rev   Ccp-Rev   Ccp-Rev
(US/Central)
05/23 00:00      0.00      ----     25.33      5100     11.93
05/23 01:00      0.00      ----     25.33      5100     11.86
05/23 02:00      0.00      ----     25.33      5100     11.86
05/23 03:00      0.00      ----     25.34      5100     11.93
05/23 04:00      0.00      ----     25.34      5100     11.86
05/23 05:00      0.00      ----     25.32      5090     11.86
05/23 06:00      0.00      ----     25.25      5060     11.86
05/23 07:00      0.00      ----     25.22      5040     11.86
05/23 08:00      0.00      ----     25.17      5010     11.86
05/23 09:00      0.00      ----     25.07      4960     11.86
05/23 10:00      0.00      ----     24.98      4920     11.93
05/23 11:00      0.00      ----     24.88      4870     12.01
05/23 12:00      0.00      ----     24.76      4810     12.09
05/23 13:00      0.00      ----     24.65      4750     12.09
05/23 14:00      0.00      ----     24.49      4670     12.09
05/23 15:00      0.00      ----     24.35      4610     12.09
05/23 16:00      0.00      ----     24.19      4530     12.09
05/23 17:00      0.00      ----     24.02      4450     12.01
05/23 18:00      0.00      ----     23.87      4380     12.01
05/23 19:00      0.00      ----     23.70      4290     12.01
05/23 20:00      0.00      ----     23.49      4200     12.01
05/23 21:00      0.00      ----     23.30      4110     12.01
05/23 22:00      0.00      ----     23.10      4020     12.01
05/23 23:00      0.00      ----     22.87      3910     11.93